Flight Track Log - Related Links

Times and Time Zones

All times are in EDT time to prevent confusion due to time zone crossing. See the UAL4550 flight status page for this flight to view local times or setup timezone preferences in your user account.

Time Position Orientation Groundspeed Altitude Reporting Facility
EDT Latitude Longitude Course Direction KTS MPH feet Rate Location/Type
15:21 29.5247 -98.4636 132° Southeast 154 177 1,400  Level Houston Center
15:21 29.5083 -98.4425 132° Southeast 167 192 2,600 2,182 Climbing Houston Center
15:22 29.4942 -98.4267 136° Southeast 176 203 3,400 1,839 Climbing Houston Center
15:22 29.4681 -98.3950 133° Southeast 203 234 4,500 2,155 Climbing Houston Center
15:23 29.4758 -98.3131 84° East 254 292 7,100 2,226 Climbing Houston Center
15:24 29.5086 -98.2239 67° East 285 328 9,100 1,392 Climbing Houston Center
15:25 29.5406 -98.1350 68° East 303 349 10,000 768 Climbing Houston Center
15:26 29.5817 -98.0206 68° East 358 412 10,700 871 Climbing Houston Center
15:27 29.6225 -97.9092 67° East 377 434 11,800 919 Climbing Houston Center
15:28 29.6533 -97.8061 71° East 390 449 12,600 581 Climbing Houston Center
15:30 29.6497 -97.6544 92° East 398 458 13,000 435 Climbing Houston Center
15:31 29.6403 -97.5269 95° East 399 459 13,500 768 Climbing Houston Center
15:32 29.6322 -97.3992 94° East 401 461 14,600 1,008 Climbing Houston Center
15:33 29.6233 -97.2706 95° East 401 461 15,600 968 Climbing Houston Center
15:34 29.6144 -97.1406 94° East 407 468 16,600 677 Climbing Houston Center
15:35 29.6061 -97.0081 94° East 411 473 17,000 -194 Climbing Houston Center
15:36 29.5953 -96.8703 95° East 423 487 16,200 -968 Descending Houston Center
15:37 29.5844 -96.7125 94° East 407 468 15,000 -1,258 Descending Houston Center
15:38 29.5756 -96.5842 95° East 401 461 13,600 -1,442 Descending Houston Center
15:39 29.5686 -96.4906 95° East 400 460 12,500 -1,429 Descending Houston Center
15:39 29.5669 -96.4575 93° East 397 457 12,100 -1,333 Descending Houston Center
15:40 29.5558 -96.3358 96° East 380 437 10,700 -1,065 Descending Houston Center
15:41 29.5483 -96.2181 94° East 374 430 9,900 -344 Descending Houston Center
15:42 29.5778 -96.1031 74° East 344 396 10,000 -202 Climbing Houston Center
15:43 29.6242 -96.0089 60° Northeast 308 354 9,500 -938 Descending Houston Center
15:44 29.6911 -95.9339 44° Northeast 305 351 8,000 -1,171 Descending Houston Center
15:45 29.7572 -95.8975 26° Northeast 298 343 7,100 -480 Descending Houston Center
15:46 29.8175 -95.8467 36° Northeast 268 308 7,000 -141 Descending Houston Center
15:47 29.8800 -95.7894 38° Northeast 254 292 6,800 -579 Descending Houston Center
15:48 29.9306 -95.7428 39° Northeast 250 288 5,900 -983 Descending Houston Center
15:49 29.9806 -95.6933 41° Northeast 238 274 4,900 -891 Descending Houston Center
15:50 29.9922 -95.6125 81° East 231 266 4,000 -780 Descending Houston Center
15:51 29.9925 -95.5450 90° East 224 258 3,300 -1,077 Descending Houston Center
15:52 29.9919 -95.4678 90° East 222 255 1,900 -1,377 Descending Houston Center

Login

Don't have an account? Register now (free) for customized features, flight alerts, and more!